Philadelphia, PA (19118)

6:17 AM EDT on September 29, 2016 (GMT -0400)
Stotesbury | | Change Station

Elev 259 ft 40.09 °N, 75.20 °W | Updated 28 seconds ago

Overcast
Overcast
60.4 °F
Feels Like 60.4 °F
N
2.5
Wind Variable Wind from North
Gusts 2.5 mph

Today
High -- | Low -- °F
--% Chance of Precip.
Yesterday
High -- | Low -- °F
Precip. -- in
Pressure 30.21 in
Visibility 7.0 miles
Clouds Overcast 700 ft
Dew Point 60 °F
Humidity 99%
Rainfall 0.22 in
Snow Depth Not available.
6:55 AM 6:45 PM
Waning Crescent, 2% visible
METAR KLOM 290955Z AUTO 06008G17KT 7SM OVC007 13/13 A3021 RMK AO1 P0002
Pressure 30.21 in
Visibility 7.0 miles
Clouds Overcast 700 ft
Dew Point 60 °F
Humidity 99%
Rainfall 0.22 in
Snow Depth Not available.
6:55 AM 6:45 PM
Waning Crescent, 2% visible
METAR KLOM 290955Z AUTO 06008G17KT 7SM OVC007 13/13 A3021 RMK AO1 P0002

10-Day Weather Forecast

Almanac

Astronomy

Sep. 29, 2016 Rise Set
Actual Time
Civil Twilight
Nautical Twilight
Astronomical Twilight
Moon
Length of Visible Light
Length of Day
Tomorrow will be .
, % of the Moon is Illuminated

Today's Extremes

State Highs State Lows

Community

WunderPhotos

Upload Photos

1,942,446 photos uploaded!

WunderBlog® & News

Nearby

Air Quality

  Air Quality AQ Index Pollutant
Not available.

Snow Depth

Station Depth Elevation

Earthquake Activity

City Distance Mag. Time & Date
Minimum magnitude displayed is 2.5.

Coastal Water Temperatures

Place Temperature

Stations

Nearby Weather Stations

Station Location Temp. Windchill Dew Point Humidity Wind Precip. Elev Updated Type
                   

Watches & Warnings

There are currently no watches in effect.